Portada
METAR-TAF:

METAR-TAF

Aeroports :

Wallis, França

latitud: 13-14S, longitud: 176-10W, altitud: 23 m

METAR: manca

Hora: 15:42 (03:42 UTC)

Pronòstic

L'informe es va fer fa 4 hores i 42 minuts, a les 23:00 UTC
Pronòstic vàlid del 18 a les 00 UTC al 18 a les 24 UTC
Vent 12 kt del Sud/Sud-Est
Visibilitat 10 km o més
Núvols disperses a una alçada de 2500 ft
Probabilitat 40% :
Temporalment
l' 18 a les 13 UTC al 18 a les 20 UTC
Escasses núvols a una alçada de 2500 ft, Cumulus congestus.
xàfecs de pluja

TAF: NLWW 172300Z 1800/1824 15012KT 9999 SCT025 PROB40 TEMPO 1813/1820 SHRA FEW025TCU

Observacions i pronòstics meteorològics de més de 4000 aeroports (METAR i TAF).

Les estacions disponibles són els punts grocs i vermells al mapa.

Posi el ratolí al punt desitjat per veure el nom de l'estació.

Feu clic per veure les observacions i els pronòstics meteorològics.

Per canviar el mapa: feu clic els botons verds amb una creu de color negre per apropar; al botó verd amb un guió per allunyar la imatge; o en les fletxes verdes per a mapes adjacents.


METAR-TAF: